createdAt,value
2018-06-04T00:02:54.880Z,98992.91
2018-06-04T00:05:57.918Z,98986.09
2018-06-04T00:09:06.341Z,98984.42
2018-06-04T00:12:09.294Z,98991.03
2018-06-04T00:15:14.478Z,98988.40
2018-06-04T00:18:17.648Z,98988.39
2018-06-04T00:21:21.733Z,98982.58
2018-06-04T00:24:26.720Z,98982.96
2018-06-04T00:27:29.822Z,98980.02
2018-06-04T00:30:32.882Z,98974.77
2018-06-04T00:33:35.917Z,98973.45
2018-06-04T00:36:39.072Z,98964.13
2018-06-04T00:39:43.142Z,98967.76
2018-06-04T00:42:48.275Z,98963.70
2018-06-04T00:45:51.253Z,98956.88
2018-06-04T00:48:54.333Z,98960.02
2018-06-04T00:51:57.437Z,98959.51
2018-06-04T00:55:00.528Z,98965.95
2018-06-04T00:58:03.745Z,98956.02
2018-06-04T01:01:06.965Z,98951.52
2018-06-04T01:04:10.052Z,98949.08
2018-06-04T01:07:13.100Z,98945.39
2018-06-04T01:10:16.220Z,98951.72
2018-06-04T01:13:19.340Z,98944.71
2018-06-04T01:16:22.435Z,98940.83
2018-06-04T01:19:25.497Z,98948.09
2018-06-04T01:22:28.584Z,98944.71
2018-06-04T01:25:31.723Z,98950.16
2018-06-04T01:28:34.735Z,98943.59
2018-06-04T01:31:37.777Z,98940.77
2018-06-04T01:34:40.898Z,98941.84
2018-06-04T01:37:43.865Z,98937.33
2018-06-04T01:40:46.903Z,98936.02
2018-06-04T01:43:49.991Z,98928.13
2018-06-04T01:46:53.074Z,98921.25
2018-06-04T01:49:56.141Z,98912.69
2018-06-04T01:52:59.117Z,98913.31
2018-06-04T01:56:02.143Z,98914.69
2018-06-04T01:59:05.203Z,98912.38
2018-06-04T02:02:08.382Z,98919.45
2018-06-04T02:05:11.442Z,98915.95
2018-06-04T02:08:14.463Z,98913.25
2018-06-04T02:11:17.484Z,98915.06
2018-06-04T02:14:20.444Z,98916.31
2018-06-04T02:17:23.480Z,98911.37
2018-06-04T02:20:26.537Z,98918.70
2018-06-04T02:23:29.585Z,98918.64
2018-06-04T02:26:32.585Z,98908.26
2018-06-04T02:29:35.594Z,98904.01
2018-06-04T02:32:38.699Z,98903.57
2018-06-04T02:35:41.707Z,98901.25
2018-06-04T02:38:44.886Z,98904.07
2018-06-04T02:41:47.905Z,98900.45
2018-06-04T02:44:50.932Z,98902.70
2018-06-04T02:47:54.041Z,98898.07
2018-06-04T02:50:57.071Z,98900.00
2018-06-04T02:54:00.234Z,98901.70
2018-06-04T02:57:03.329Z,98900.69
2018-06-04T03:00:11.893Z,98898.31
2018-06-04T03:03:15.004Z,98899.75
2018-06-04T03:06:19.042Z,98903.13
2018-06-04T03:09:22.094Z,98898.82
2018-06-04T03:12:25.292Z,98895.44
2018-06-04T03:15:28.443Z,98890.44
2018-06-04T03:18:31.540Z,98893.81
2018-06-04T03:21:34.788Z,98891.50
2018-06-04T03:24:37.796Z,98882.81
2018-06-04T03:27:40.855Z,98891.00
2018-06-04T03:30:43.977Z,98891.31
2018-06-04T03:33:48.012Z,98887.30
2018-06-04T03:36:50.981Z,98890.25
2018-06-04T03:39:53.987Z,98881.80
2018-06-04T03:43:00.383Z,98888.92
2018-06-04T03:46:03.401Z,98892.78
2018-06-04T03:49:08.400Z,98888.93
2018-06-04T03:52:11.396Z,98888.83
2018-06-04T03:55:14.372Z,98888.05
2018-06-04T03:58:20.827Z,98885.05
2018-06-04T04:01:23.787Z,98877.27
2018-06-04T04:04:32.564Z,98877.89
2018-06-04T04:07:39.982Z,98871.30
2018-06-04T04:10:43.013Z,98866.83
2018-06-04T04:13:46.043Z,98868.10
2018-06-04T04:16:49.178Z,98861.26
2018-06-04T04:19:52.430Z,98863.09
2018-06-04T04:22:55.474Z,98859.14
2018-06-04T04:25:59.521Z,98857.13
2018-06-04T04:29:02.681Z,98855.23
2018-06-04T04:32:05.839Z,98849.91
2018-06-04T04:35:09.987Z,98851.05
2018-06-04T04:38:14.072Z,98852.47
2018-06-04T04:41:18.319Z,98850.80
2018-06-04T04:44:21.485Z,98846.20
2018-06-04T04:47:25.500Z,98844.28
2018-06-04T04:50:28.588Z,98852.48
2018-06-04T04:53:31.792Z,98851.81
2018-06-04T04:56:36.885Z,98852.87
2018-06-04T04:59:41.151Z,98851.55
2018-06-04T05:02:45.285Z,98851.02
2018-06-04T05:05:49.001Z,98854.52
2018-06-04T05:08:53.055Z,98848.02
2018-06-04T05:11:56.186Z,98852.62
2018-06-04T05:15:00.402Z,98845.42
2018-06-04T05:18:03.397Z,98844.73
2018-06-04T05:21:06.566Z,98844.09
2018-06-04T05:24:10.663Z,98841.11
2018-06-04T05:27:17.571Z,98846.05
2018-06-04T05:30:23.990Z,98843.45
2018-06-04T05:33:27.053Z,98843.05
2018-06-04T05:36:31.086Z,98840.66
2018-06-04T05:39:36.237Z,98845.28
2018-06-04T05:42:39.579Z,98852.41
2018-06-04T05:45:42.762Z,98856.65
2018-06-04T05:48:45.962Z,98850.19
2018-06-04T05:51:49.018Z,98851.12
2018-06-04T05:54:53.141Z,98845.94
2018-06-04T05:57:59.682Z,98845.39
2018-06-04T06:01:02.856Z,98831.90
2018-06-04T06:04:06.900Z,98833.51
2018-06-04T06:07:11.036Z,98826.63
2018-06-04T06:10:14.144Z,98825.69
2018-06-04T06:13:17.178Z,98821.84
2018-06-04T06:16:20.212Z,98815.91
2018-06-04T06:19:23.180Z,98820.91
2018-06-04T06:22:26.350Z,98817.33
2018-06-04T06:25:30.425Z,98820.52
2018-06-04T06:28:34.683Z,98816.91
2018-06-04T06:31:37.959Z,98809.89
2018-06-04T06:34:41.216Z,98808.86
2018-06-04T06:37:44.413Z,98813.28
2018-06-04T06:40:48.491Z,98809.36
2018-06-04T06:43:51.572Z,98803.77
2018-06-04T06:46:54.643Z,98805.99
2018-06-04T06:49:57.774Z,98803.61
2018-06-04T06:53:00.709Z,98806.09
2018-06-04T06:56:03.885Z,98811.79
2018-06-04T06:59:07.102Z,98803.86
2018-06-04T07:02:10.126Z,98802.69
2018-06-04T07:05:13.237Z,98802.42
2018-06-04T07:08:16.286Z,98798.39
2018-06-04T07:11:20.358Z,98794.34
2018-06-04T07:14:23.499Z,98793.09
2018-06-04T07:17:26.384Z,98790.31
2018-06-04T07:20:29.438Z,98799.92
2018-06-04T07:23:32.467Z,98801.66
2018-06-04T07:26:35.557Z,98789.42
2018-06-04T07:29:38.677Z,98785.20
2018-06-04T07:32:41.909Z,98791.25
2018-06-04T07:35:45.107Z,98783.69
2018-06-04T07:38:48.497Z,98768.69
2018-06-04T07:41:51.882Z,98778.20
2018-06-04T07:44:54.999Z,98775.06
2018-06-04T07:47:58.137Z,98768.83
2018-06-04T07:51:01.113Z,98767.70
2018-06-04T07:54:04.322Z,98766.22
2018-06-04T07:57:07.437Z,98774.30
2018-06-04T08:00:10.576Z,98771.46
2018-06-04T08:03:13.642Z,98768.88
2018-06-04T08:06:16.823Z,98768.36
2018-06-04T08:09:22.024Z,98764.42
2018-06-04T08:12:25.212Z,98766.63
2018-06-04T08:15:28.538Z,98773.95
2018-06-04T08:18:31.614Z,98763.47
2018-06-04T08:21:34.668Z,98759.45
2018-06-04T08:24:37.812Z,98748.78
2018-06-04T08:27:40.869Z,98746.59
2018-06-04T08:30:44.055Z,98742.33
2018-06-04T08:33:47.175Z,98740.20
2018-06-04T08:36:51.225Z,98738.30
2018-06-04T08:39:54.268Z,98732.16
2018-06-04T08:42:57.872Z,98734.77
2018-06-04T08:46:01.065Z,98731.19
2018-06-04T08:49:04.185Z,98729.41
2018-06-04T08:52:07.315Z,98732.45
2018-06-04T08:55:10.472Z,98726.42
2018-06-04T08:58:13.592Z,98730.50
2018-06-04T09:01:16.925Z,98733.16
2018-06-04T09:04:20.992Z,98737.24
2018-06-04T09:07:25.070Z,98734.28
2018-06-04T09:10:28.119Z,98738.34
2018-06-04T09:13:32.230Z,98733.69
2018-06-04T09:16:35.283Z,98734.27
2018-06-04T09:19:38.541Z,98735.77
2018-06-04T09:22:41.579Z,98728.86
2018-06-04T09:25:44.720Z,98730.46
2018-06-04T09:28:47.799Z,98732.33
2018-06-04T09:31:54.262Z,98729.70
2018-06-04T09:34:57.465Z,98731.95
2018-06-04T09:38:00.577Z,98726.14
2018-06-04T09:41:03.791Z,98731.45
2018-06-04T09:44:06.889Z,98728.28
2018-06-04T09:47:09.922Z,98728.11
2018-06-04T09:50:13.140Z,98730.42
2018-06-04T09:53:16.218Z,98720.63
2018-06-04T09:56:19.552Z,98720.50
2018-06-04T09:59:22.791Z,98716.94
2018-06-04T10:02:25.945Z,98728.02
2018-06-04T10:05:30.152Z,98716.89
2018-06-04T10:08:34.240Z,98721.51
2018-06-04T10:11:37.321Z,98722.78
2018-06-04T10:14:40.515Z,98714.21
2018-06-04T10:17:49.262Z,98716.86
2018-06-04T10:20:53.039Z,98704.33
2018-06-04T10:23:57.343Z,98703.22
2018-06-04T10:27:00.595Z,98707.37
2018-06-04T10:30:06.072Z,98704.56
2018-06-04T10:33:09.477Z,98703.95
2018-06-04T10:36:12.760Z,98700.52
2018-06-04T10:39:17.098Z,98708.78
2018-06-04T10:42:20.262Z,98706.20
2018-06-04T10:45:23.527Z,98708.13
2018-06-04T10:48:26.789Z,98703.80
2018-06-04T10:51:31.905Z,98702.03
2018-06-04T10:54:38.629Z,98704.19
2018-06-04T10:58:46.605Z,98705.10
2018-06-04T11:01:50.668Z,98696.22
2018-06-04T11:05:09.178Z,98695.52
2018-06-04T11:08:14.663Z,98693.41
2018-06-04T11:11:18.032Z,98695.61
2018-06-04T11:14:23.361Z,98692.05
2018-06-04T11:17:28.930Z,98686.36
2018-06-04T11:20:37.269Z,98687.95
2018-06-04T11:23:41.697Z,98689.37
2018-06-04T11:26:45.174Z,98681.03
2018-06-04T11:29:50.597Z,98681.40
2018-06-04T11:33:01.836Z,98678.84
2018-06-04T11:36:05.197Z,98674.59
2018-06-04T11:39:12.706Z,98671.53
2018-06-04T11:42:16.783Z,98662.58
2018-06-04T11:45:21.761Z,98666.19
2018-06-04T11:48:27.185Z,98663.29
2018-06-04T11:51:38.221Z,98661.16
2018-06-04T11:54:41.766Z,98677.70
2018-06-04T11:57:52.628Z,98663.64
2018-06-04T12:00:56.387Z,98662.13
2018-06-04T12:04:02.159Z,98660.89
2018-06-04T12:07:08.794Z,98648.85
2018-06-04T12:10:35.262Z,98647.61
2018-06-04T12:13:52.441Z,98653.98
2018-06-04T12:16:57.107Z,98654.32
2018-06-04T12:20:01.712Z,98650.59
2018-06-04T12:23:08.929Z,98637.52
2018-06-04T12:26:14.348Z,98634.41
2018-06-04T12:29:17.799Z,98631.46
2018-06-04T12:32:25.569Z,98629.84
2018-06-04T12:35:29.205Z,98625.44
2018-06-04T12:38:36.245Z,98619.66
2018-06-04T12:41:39.709Z,98618.82
2018-06-04T12:44:44.404Z,98619.38
2018-06-04T12:47:50.197Z,98616.51
2018-06-04T12:50:58.559Z,98615.71
2018-06-04T12:54:01.968Z,98607.42
2018-06-04T12:57:05.493Z,98610.34
2018-06-04T13:00:09.903Z,98617.42
2018-06-04T13:03:16.743Z,98605.09
2018-06-04T13:06:20.141Z,98605.09
2018-06-04T13:09:23.416Z,98598.47
2018-06-04T13:12:30.332Z,98590.30
2018-06-04T13:15:34.922Z,98590.75
2018-06-04T13:18:38.647Z,98586.83
2018-06-04T13:21:42.075Z,98581.32
2018-06-04T13:24:45.484Z,98582.38
2018-06-04T13:27:49.192Z,98575.23
2018-06-04T13:30:52.836Z,98574.50
2018-06-04T13:33:56.422Z,98571.97
2018-06-04T13:37:05.600Z,98564.71
2018-06-04T13:40:12.074Z,98568.03
2018-06-04T13:43:16.952Z,98563.16
2018-06-04T13:46:20.449Z,98551.77
2018-06-04T13:49:25.903Z,98553.77
2018-06-04T13:52:30.071Z,98545.41
2018-06-04T13:55:33.458Z,98549.14
2018-06-04T13:58:36.858Z,98547.13
2018-06-04T14:01:40.274Z,98529.48
2018-06-04T14:04:43.633Z,98531.17
2018-06-04T14:07:46.890Z,98526.97
2018-06-04T14:10:50.287Z,98522.73
2018-06-04T14:13:53.747Z,98521.92
2018-06-04T14:16:57.039Z,98522.42
2018-06-04T14:20:01.161Z,98521.80
2018-06-04T14:23:04.562Z,98508.68
2018-06-04T14:26:07.828Z,98513.44
2018-06-04T14:29:11.262Z,98504.61
2018-06-04T14:32:14.705Z,98502.14
2018-06-04T14:35:20.177Z,98501.63
2018-06-04T14:38:24.288Z,98499.12
2018-06-04T14:41:27.310Z,98492.02
2018-06-04T14:44:30.382Z,98493.34
2018-06-04T14:47:36.599Z,98484.02
2018-06-04T14:50:39.976Z,98483.96
2018-06-04T14:53:44.322Z,98481.93
2018-06-04T14:56:50.564Z,98479.59
2018-06-04T14:59:54.733Z,98479.14
2018-06-04T15:02:57.864Z,98471.84
2018-06-04T15:06:01.037Z,98471.25
2018-06-04T15:09:07.350Z,98468.27
2018-06-04T15:12:12.550Z,98460.73
2018-06-04T15:15:22.528Z,98458.89
2018-06-04T15:18:25.780Z,98450.28
2018-06-04T15:21:29.679Z,98446.64
2018-06-04T15:24:34.003Z,98442.62
2018-06-04T15:27:38.394Z,98439.83
2018-06-04T15:30:42.010Z,98454.52
2018-06-04T15:33:46.526Z,98438.41
2018-06-04T15:36:50.824Z,98437.69
2018-06-04T15:39:57.792Z,98432.02
2018-06-04T15:43:02.431Z,98432.31
2018-06-04T15:46:07.281Z,98427.00
2018-06-04T15:49:10.973Z,98426.72
2018-06-04T15:52:14.293Z,98424.73
2018-06-04T15:55:18.607Z,98415.87
2018-06-04T15:58:22.341Z,98408.39
2018-06-04T16:01:26.536Z,98412.06
2018-06-04T16:04:29.713Z,98407.15
2018-06-04T16:07:33.182Z,98413.47
2018-06-04T16:10:37.486Z,98405.40
2018-06-04T16:13:41.970Z,98404.91
2018-06-04T16:16:46.337Z,98405.80
2018-06-04T16:19:49.733Z,98404.30
2018-06-04T16:22:53.149Z,98407.32
2018-06-04T16:25:57.388Z,98406.80
2018-06-04T16:29:00.462Z,98393.50
2018-06-04T16:32:03.538Z,98384.87
2018-06-04T16:35:07.580Z,98380.58
2018-06-04T16:38:10.622Z,98379.64
2018-06-04T16:41:13.702Z,98374.34
2018-06-04T16:44:16.906Z,98375.02
2018-06-04T16:47:22.357Z,98382.06
2018-06-04T16:50:25.757Z,98383.66
2018-06-04T16:53:30.163Z,98384.09
2018-06-04T16:56:33.414Z,98392.37
2018-06-04T16:59:37.561Z,98387.23
2018-06-04T17:02:40.752Z,98385.37
2018-06-04T17:05:46.102Z,98393.17
2018-06-04T17:08:50.537Z,98389.31
2018-06-04T17:11:56.007Z,98391.80
2018-06-04T17:15:01.496Z,98396.44
2018-06-04T17:18:07.269Z,98397.41
2018-06-04T17:21:10.713Z,98394.45
2018-06-04T17:24:15.855Z,98387.95
2018-06-04T17:27:19.098Z,98398.70
2018-06-04T17:30:22.176Z,98395.77
2018-06-04T17:33:25.288Z,98392.72
2018-06-04T17:36:30.370Z,98396.98
2018-06-04T17:39:34.480Z,98388.73
2018-06-04T17:42:37.614Z,98396.70
2018-06-04T17:45:40.891Z,98403.52
2018-06-04T17:48:45.031Z,98395.02
2018-06-04T17:51:50.113Z,98395.06
2018-06-04T17:54:53.251Z,98395.97
2018-06-04T17:57:56.300Z,98402.40
2018-06-04T18:00:59.545Z,98406.73
2018-06-04T18:04:05.942Z,98408.97
2018-06-04T18:07:09.101Z,98411.28
2018-06-04T18:10:17.069Z,98415.83
2018-06-04T18:13:21.231Z,98421.82
2018-06-04T18:16:24.451Z,98420.75
2018-06-04T18:19:31.319Z,98419.42
2018-06-04T18:22:34.658Z,98419.66
2018-06-04T18:25:37.772Z,98424.08
2018-06-04T18:28:40.892Z,98433.57
2018-06-04T18:31:44.154Z,98436.86
2018-06-04T18:34:48.368Z,98446.81
2018-06-04T18:37:52.601Z,98451.11
2018-06-04T18:40:56.576Z,98444.77
2018-06-04T18:44:01.108Z,98455.23
2018-06-04T18:47:04.777Z,98454.45
2018-06-04T18:50:08.151Z,98459.84
2018-06-04T18:53:11.436Z,98455.02
2018-06-04T18:56:15.670Z,98464.09
2018-06-04T18:59:20.003Z,98461.14
2018-06-04T19:02:24.176Z,98471.27
2018-06-04T19:05:28.301Z,98485.93
2018-06-04T19:08:33.327Z,98482.40
2018-06-04T19:11:38.506Z,98491.95
2018-06-04T19:14:41.924Z,98496.19
2018-06-04T19:17:45.140Z,98491.59
2018-06-04T19:20:49.447Z,98496.05
2018-06-04T19:23:53.747Z,98500.11
2018-06-04T19:26:58.047Z,98512.47
2018-06-04T19:30:03.884Z,98519.75
2018-06-04T19:33:07.645Z,98520.84
2018-06-04T19:36:11.188Z,98527.34
2018-06-04T19:39:14.559Z,98534.67
2018-06-04T19:42:17.865Z,98538.22
2018-06-04T19:45:21.087Z,98538.01
2018-06-04T19:48:24.562Z,98545.83
2018-06-04T19:51:27.825Z,98558.58
2018-06-04T19:54:31.074Z,98555.70
2018-06-04T19:57:35.119Z,98566.64
2018-06-04T20:00:38.232Z,98566.24
2018-06-04T20:03:41.317Z,98567.98
2018-06-04T20:06:44.349Z,98581.05
2018-06-04T20:09:48.473Z,98579.72
2018-06-04T20:12:51.540Z,98582.12
2018-06-04T20:15:56.613Z,98589.80
2018-06-04T20:18:59.755Z,98600.08
2018-06-04T20:22:03.011Z,98600.93
2018-06-04T20:25:06.236Z,98597.51
2018-06-04T20:28:09.240Z,98604.97
2018-06-04T20:31:12.369Z,98604.70
2018-06-04T20:34:15.417Z,98609.49
2018-06-04T20:37:20.887Z,98610.77
2018-06-04T20:40:25.916Z,98610.38
2018-06-04T20:43:32.508Z,98607.09
2018-06-04T20:57:31.526Z,98622.01
2018-06-04T21:00:35.651Z,98633.06
2018-06-04T21:03:44.710Z,98639.16
2018-06-04T21:06:49.266Z,98634.14
2018-06-04T21:09:55.419Z,98634.13
2018-06-04T21:13:06.048Z,98640.21
2018-06-04T21:16:09.938Z,98644.61
2018-06-04T21:19:15.018Z,98638.09
2018-06-04T21:22:26.940Z,98636.86
2018-06-04T21:25:32.525Z,98639.98
2018-06-04T21:28:38.579Z,98645.02
2018-06-04T21:31:45.238Z,98652.65
2018-06-04T21:34:56.741Z,98647.80
2018-06-04T21:38:00.548Z,98646.48
2018-06-04T21:41:05.479Z,98646.41
2018-06-04T21:44:12.958Z,98649.58
2018-06-04T21:47:19.802Z,98648.99
2018-06-04T21:50:25.602Z,98653.78
2018-06-04T21:53:29.309Z,98648.50
2018-06-04T21:56:33.096Z,98644.32
2018-06-04T21:59:41.147Z,98646.52
2018-06-04T22:02:44.960Z,98649.97
2018-06-04T22:05:53.608Z,98647.69
2018-06-04T22:08:58.322Z,98651.20
2018-06-04T22:12:03.260Z,98646.23
2018-06-04T22:15:09.193Z,98642.31
2018-06-04T22:18:17.787Z,98640.34
2018-06-04T22:21:22.418Z,98638.06
2018-06-04T22:24:27.360Z,98641.80
2018-06-04T22:27:30.995Z,98637.69
2018-06-04T22:30:36.456Z,98642.53
2018-06-04T22:33:40.856Z,98641.29
2018-06-04T22:36:46.925Z,98645.03
2018-06-04T22:39:51.025Z,98644.81
2018-06-04T22:42:54.719Z,98649.14
2018-06-04T22:46:03.142Z,98646.23
2018-06-04T22:49:07.480Z,98652.16
2018-06-04T22:52:22.067Z,98647.94
2018-06-04T22:55:25.978Z,98653.97
2018-06-04T22:58:29.900Z,98650.90
2018-06-04T23:01:34.908Z,98651.34
2018-06-04T23:04:39.813Z,98647.53
2018-06-04T23:07:44.972Z,98647.09
2018-06-04T23:10:49.964Z,98644.76
2018-06-04T23:13:56.196Z,98637.13
2018-06-04T23:17:01.181Z,98642.13
2018-06-04T23:20:07.745Z,98646.13
2018-06-04T23:23:14.372Z,98653.39
2018-06-04T23:26:19.699Z,98647.80
2018-06-04T23:29:24.830Z,98650.51
2018-06-04T23:32:30.579Z,98644.63
2018-06-04T23:35:36.376Z,98638.55
2018-06-04T23:38:42.343Z,98640.62
2018-06-04T23:41:47.648Z,98644.58
2018-06-04T23:44:53.533Z,98645.47
2018-06-04T23:48:02.555Z,98646.93
2018-06-04T23:51:09.371Z,98649.42
2018-06-04T23:54:18.310Z,98653.36
2018-06-04T23:57:36.896Z,98645.15
